LIMCLIMF

Guest
Details From LIMC - Milano Malpensa
To LIMF - Torino Caselle
Flight Number -
Tags generated
Created
Modified
Stats Distance 56 nm / 104 km
Max Altitude 500 ft / 152 m
Waypoints 3
Social Downloads 16
Likes 0
Share VATSIM

Download

Looking for another format? Having issues loading an existing format? Contact us
Advertisement - Login to hide

Notes

Basic altitude profile: - Ascent Rate: 2500ft/min - Ascent Speed: 250kts - Cruise Altitude: 35000ft - Cruise Speed: 420kts - Descent Rate: 1500ft/min - Descent Speed: 250kts Options: - Use NATs: yes - Use PACOTS: yes - Use low airways: yes - Use high airways: yes

Route

LIMC KERES LIMF

ID Type Via Altitude Latitude Longitude Leg Dist Tot Dist Heading (true) Name
O LIMC APT - 0 ft / 0 m 45.63061˚ 8.72811˚ - 0 nm - Milano Malpensa
KERES FIX - 500 ft / 152 m 45.22139˚ 7.59778˚ 53 nm 53 nm 243° / 242° -
O LIMF APT - 0 ft / 0 m 45.20076˚ 7.64963˚ 2 nm 56 nm 119° / 119° Torino Caselle

Altitude Profile

Advertisement - Login to hide

LIMC

Details ICAO LIMC (MXP)
Name Milano Malpensa
Region Italy
Timezone Europe/Rome (UTC+1.0)
Stats Elevation 767 ft / 234 m (AMSL)
Location 45.630606° 8.728111°
Runways 2
Magnetic Variation 2.376° E

METAR

LIMC 121620Z VRB01KT 3000 R35R/0325V0600N R17L/0500V0750D R35L/P1500N BCFG NSC 03/03 Q1011 BECMG 1500 BCFG

Decode

TAF

TAF LIMC 121100Z 1212/1318 VRB05KT 8000 SCT080 TEMPO 1222/1308 2500 BCFG

Decode

Departure Runways

ID Width Length Bearing (true) Bearing (mag) Surface Threshold Offset Overrun Length
17L 197 ft / 60 m 12,869 ft / 3,923 m 169.62° 167.24° Asphalt 3,094 ft / 943 m 0 ft / 0 m
17R 197 ft / 60 m 12,869 ft / 3,923 m 169.62° 167.24° Asphalt 0 ft / 0 m 0 ft / 0 m
35L 197 ft / 60 m 12,869 ft / 3,923 m 349.62° 347.24° Asphalt 1,329 ft / 405 m 0 ft / 0 m
35R 197 ft / 60 m 12,869 ft / 3,923 m 349.62° 347.24° Asphalt 0 ft / 0 m 0 ft / 0 m

LIMF

Details ICAO LIMF (TRN)
Name Torino Caselle
Region Italy
Timezone Europe/Rome (UTC+1.0)
Stats Elevation 989 ft / 301 m (AMSL)
Location 45.200763° 7.649630°
Runways 1
Magnetic Variation 2.121° E

METAR

LIMF 121620Z VRB02KT 7000 NSC 03/01 Q1011

Decode

TAF

TAF LIMF 121100Z 1212/1312 VRB05KT CAVOK TEMPO 1302/1307 3500 BCFG

Decode

Destination Runways

ID Width Length Bearing (true) Bearing (mag) Surface Threshold Offset Overrun Length
18 197 ft / 60 m 10,835 ft / 3,303 m 182.56° 180.44° Asphalt 2,378 ft / 725 m 970 ft / 296 m
36 197 ft / 60 m 10,835 ft / 3,303 m 2.56° 0.44° Asphalt 1,148 ft / 350 m 0 ft / 0 m

Approach Navaids

Runway Type Ident Frequency Range Bearing (true) Bearing (mag) Slope Elevation
36 Localiser ITOC 108.70 MHz 18 nm / 33 km 2.56° 0.44° - 989 ft / 301 m (AMSL)
36 Glidescope ITOC 108.70 MHz 10 nm / 19 km 2.56° 0.44° 3.00° 989 ft / 301 m (AMSL)
36 DME ITOC 108.70 MHz 25 nm / 46 km - - - 989 ft / 301 m (AMSL)

Popular Alternatives